Time;durP1;ratioP1;P1;durP2;ratioP2;P2;SDS_P1;SDS_P2;PMS_P1;PMS_P2;Temp;Humidity;BMP_temperature;BMP_pressure;BME280_temperature;BME280_humidity;BME280_pressure;Samples;Min_cycle;Max_cycle;Signal;HPM_P1;HPM_P2
2021/12/02 09:24:50;;;;;;;27.23;18.10;;;;;;;;;;5539774;23;20049;-84
2021/12/02 10:16:21;;;;;;;24.48;17.63;;;;;;;;;;4879349;29;20045;-83
2021/12/02 10:18:55;;;;;;;26.00;19.52;;;;;;;;;;4880905;29;20029;-82
2021/12/02 10:21:26;;;;;;;28.85;18.45;;;;;;;;;;4880722;29;20029;-81
2021/12/02 10:23:53;;;;;;;28.40;20.00;;;;;;;;;;4880469;29;20045;-81
2021/12/02 10:26:21;;;;;;;28.15;18.67;;;;;;;;;;4880699;29;20029;-81
2021/12/02 10:28:47;;;;;;;29.42;18.85;;;;;;;;;;4880533;29;20021;-81
2021/12/02 10:31:24;;;;;;;27.13;19.25;;;;;;;;;;4880502;29;20556;-81
2021/12/02 10:33:57;;;;;;;31.73;19.15;;;;;;;;;;4880376;29;20028;-81
2021/12/02 10:36:25;;;;;;;27.80;18.45;;;;;;;;;;4880372;29;20033;-80
2021/12/02 10:38:51;;;;;;;25.88;19.27;;;;;;;;;;4863568;29;20028;-80
2021/12/02 10:41:24;;;;;;;26.63;19.75;;;;;;;;;;4863199;29;20056;-81
2021/12/02 10:44:12;;;;;;;30.48;19.30;;;;;;;;;;4880499;29;20077;-81
2021/12/02 10:46:57;;;;;;;26.35;18.77;;;;;;;;;;4880422;29;20085;-81
2021/12/02 10:49:24;;;;;;;27.77;19.02;;;;;;;;;;4879577;29;20041;-81
2021/12/02 10:51:52;;;;;;;27.83;18.65;;;;;;;;;;4879845;29;20029;-81
2021/12/02 10:54:24;;;;;;;30.13;18.85;;;;;;;;;;4880093;29;20036;-80
2021/12/02 10:56:55;;;;;;;27.58;19.35;;;;;;;;;;4880174;29;20037;-81
2021/12/02 10:59:30;;;;;;;28.48;19.90;;;;;;;;;;4880063;29;20129;-81
2021/12/02 11:02:01;;;;;;;25.73;18.52;;;;;;;;;;4879954;29;20476;-80
2021/12/02 11:04:33;;;;;;;25.83;18.33;;;;;;;;;;4879932;29;20383;-80
2021/12/02 11:07:01;;;;;;;26.30;19.20;;;;;;;;;;4879898;29;20025;-81
2021/12/02 11:09:30;;;;;;;29.67;18.90;;;;;;;;;;4879944;29;20408;-81
2021/12/02 11:12:06;;;;;;;27.92;19.15;;;;;;;;;;4879920;29;20524;-81
2021/12/02 11:14:32;;;;;;;27.15;18.88;;;;;;;;;;4863356;29;20064;-82
2021/12/02 11:17:09;;;;;;;24.05;18.35;;;;;;;;;;4879928;29;20452;-80
2021/12/02 11:19:35;;;;;;;23.17;16.85;;;;;;;;;;4879658;29;20025;-82
2021/12/02 11:22:11;;;;;;;23.80;17.48;;;;;;;;;;4879915;29;20044;-82
2021/12/02 11:24:38;;;;;;;26.05;18.23;;;;;;;;;;4880119;29;20033;-86
2021/12/02 11:27:14;;;;;;;25.88;18.55;;;;;;;;;;4879701;29;20033;-85
2021/12/02 11:29:49;;;;;;;25.52;19.05;;;;;;;;;;4863272;29;20029;-84
2021/12/02 11:32:34;;;;;;;26.05;18.77;;;;;;;;;;4863258;29;20033;-86
2021/12/02 11:35:14;;;;;;;25.80;18.27;;;;;;;;;;4879776;29;20033;-87
2021/12/02 11:37:46;;;;;;;23.35;17.55;;;;;;;;;;4863469;29;20041;-85
2021/12/02 11:40:18;;;;;;;26.70;18.30;;;;;;;;;;4880066;29;20035;-86
2021/12/02 11:42:45;;;;;;;29.10;18.98;;;;;;;;;;4879847;29;20029;-85
2021/12/02 11:45:13;;;;;;;24.55;18.10;;;;;;;;;;4879887;29;20060;-84
2021/12/02 11:47:40;;;;;;;28.58;19.50;;;;;;;;;;4880186;29;20552;-83
2021/12/02 11:50:07;;;;;;;25.25;18.27;;;;;;;;;;4880328;29;20029;-85
2021/12/02 11:52:36;;;;;;;26.90;18.95;;;;;;;;;;4865607;29;20032;-85
2021/12/02 11:55:05;;;;;;;26.38;19.60;;;;;;;;;;4883536;29;20064;-85
2021/12/02 11:57:33;;;;;;;24.00;17.70;;;;;;;;;;4872501;29;20029;-82
2021/12/02 11:59:59;;;;;;;24.75;18.48;;;;;;;;;;4865528;29;20029;-88
2021/12/02 12:02:25;;;;;;;24.98;17.35;;;;;;;;;;4849270;29;20098;-86
2021/12/02 12:04:56;;;;;;;29.23;19.60;;;;;;;;;;4864941;29;20104;-86
2021/12/02 12:07:25;;;;;;;25.70;18.55;;;;;;;;;;4848183;29;20543;-84
2021/12/02 12:10:29;;;;;;;25.60;18.10;;;;;;;;;;4864942;29;20045;-84
2021/12/02 12:13:15;;;;;;;26.58;18.38;;;;;;;;;;4847247;29;20484;-85
2021/12/02 12:15:53;;;;;;;27.55;19.52;;;;;;;;;;4847868;29;20081;-85
2021/12/02 12:18:41;;;;;;;30.40;17.95;;;;;;;;;;4864600;29;20037;-85
2021/12/02 12:21:11;;;;;;;28.77;19.20;;;;;;;;;;4847659;29;20507;-84
2021/12/02 12:23:42;;;;;;;;;;;;;;;;;;4864780;29;20025;-85
2021/12/02 12:26:16;;;;;;;25.75;18.27;;;;;;;;;;4847636;29;19951;-84
2021/12/02 12:29:09;;;;;;;26.75;19.52;;;;;;;;;;4864463;29;20029;-84
2021/12/02 12:31:50;;;;;;;27.67;20.48;;;;;;;;;;4822490;29;20088;-84
2021/12/02 12:37:38;;;;;;;26.63;18.75;;;;;;;;;;4833380;29;20061;-82
2021/12/02 12:40:12;;;;;;;24.25;18.20;;;;;;;;;;4881512;29;20055;-82
2021/12/02 12:42:41;;;;;;;26.27;19.30;;;;;;;;;;4882340;29;20108;-82
2021/12/02 12:45:09;;;;;;;28.25;20.42;;;;;;;;;;4882829;29;20048;-82
2021/12/02 18:27:04;;;;;;;18.63;8.85;;;;;;;;;;5025786;23;20092;-79
2021/12/02 18:29:30;;;;;;;10.52;9.10;;;;;;;;;;4863732;29;20365;-78
2021/12/02 18:31:55;;;;;;;13.23;8.55;;;;;;;;;;4880693;29;20392;-80
2021/12/02 18:34:22;;;;;;;14.80;11.13;;;;;;;;;;4870992;29;20041;-79
2021/12/02 18:36:47;;;;;;;16.17;11.00;;;;;;;;;;4880327;29;20040;-79
2021/12/02 18:39:14;;;;;;;11.82;9.15;;;;;;;;;;4864487;29;20029;-77
2021/12/02 18:41:41;;;;;;;16.15;9.75;;;;;;;;;;4880605;29;20493;-78
2021/12/02 18:44:07;;;;;;;13.90;9.80;;;;;;;;;;4880589;29;20033;-78
2021/12/02 18:46:38;;;;;;;16.88;14.18;;;;;;;;;;4879984;29;20029;-78
2021/12/02 18:49:03;;;;;;;16.70;13.43;;;;;;;;;;4880554;29;20187;-78
2021/12/02 18:51:32;;;;;;;13.68;10.65;;;;;;;;;;4879874;29;20112;-78
2021/12/02 18:53:59;;;;;;;18.37;11.93;;;;;;;;;;4879567;29;20024;-78
2021/12/02 18:56:24;;;;;;;13.75;10.52;;;;;;;;;;4880307;29;20029;-78
2021/12/02 18:58:50;;;;;;;12.50;9.07;;;;;;;;;;4880100;29;20540;-79
2021/12/02 19:01:15;;;;;;;12.63;9.00;;;;;;;;;;4880190;29;20357;-78
2021/12/02 19:03:42;;;;;;;15.20;11.10;;;;;;;;;;4879905;29;20494;-79
2021/12/02 19:27:30;;;;;;;15.45;10.13;;;;;;;;;;4861317;29;20198;-79
2021/12/02 19:29:55;;;;;;;14.02;9.20;;;;;;;;;;4861317;29;20112;-78
2021/12/02 19:32:21;;;;;;;12.98;9.35;;;;;;;;;;4861110;29;20508;-78
2021/12/02 19:34:47;;;;;;;16.73;10.65;;;;;;;;;;4861183;29;20041;-77
2021/12/02 19:37:16;;;;;;;15.02;9.93;;;;;;;;;;4861119;29;20037;-78
2021/12/02 19:39:43;;;;;;;14.85;10.40;;;;;;;;;;4860968;29;20040;-78
2021/12/02 19:42:08;;;;;;;14.50;10.43;;;;;;;;;;4861141;29;20128;-77
2021/12/02 19:44:34;;;;;;;16.95;11.98;;;;;;;;;;4861019;29;20154;-78
2021/12/02 19:46:59;;;;;;;14.40;11.13;;;;;;;;;;4861050;29;20117;-78
2021/12/02 19:49:26;;;;;;;14.38;10.30;;;;;;;;;;4861159;29;20489;-78
2021/12/02 19:51:52;;;;;;;18.77;11.38;;;;;;;;;;4861328;29;20086;-78
2021/12/02 19:54:17;;;;;;;18.63;11.23;;;;;;;;;;4861709;29;20057;-78
2021/12/02 19:56:43;;;;;;;19.10;12.75;;;;;;;;;;4861421;29;20090;-78
2021/12/02 19:59:08;;;;;;;21.90;14.30;;;;;;;;;;4861241;29;20100;-79
2021/12/02 20:01:34;;;;;;;21.75;14.05;;;;;;;;;;4868980;29;20025;-78
2021/12/02 21:46:14;;;;;;;20.52;13.27;;;;;;;;;;4796579;27;19935;-78
2021/12/02 21:48:39;;;;;;;15.45;10.77;;;;;;;;;;4851479;29;20057;-78
2021/12/02 21:51:06;;;;;;;18.63;13.48;;;;;;;;;;4826554;29;20040;-78
2021/12/02 21:53:33;;;;;;;16.50;12.60;;;;;;;;;;4825756;29;20041;-78
2021/12/02 21:55:59;;;;;;;19.77;12.57;;;;;;;;;;4825892;29;20034;-79
2021/12/02 21:58:27;;;;;;;20.23;12.77;;;;;;;;;;4827863;29;20022;-78
2021/12/02 22:01:03;;;;;;;22.98;13.77;;;;;;;;;;4825853;29;20053;-78
2021/12/02 22:03:29;;;;;;;20.77;13.55;;;;;;;;;;4809579;29;20054;-79
2021/12/02 22:05:54;;;;;;;16.00;10.45;;;;;;;;;;4825857;29;20030;-78
2021/12/02 22:08:20;;;;;;;14.75;10.15;;;;;;;;;;4825898;29;20041;-78
2021/12/02 22:10:45;;;;;;;15.40;10.15;;;;;;;;;;4825977;29;20378;-78
2021/12/02 22:13:11;;;;;;;17.20;10.18;;;;;;;;;;4825612;29;20030;-78
2021/12/02 22:15:36;;;;;;;14.05;10.55;;;;;;;;;;4826014;29;20075;-78
2021/12/02 22:18:05;;;;;;;14.50;10.60;;;;;;;;;;4825806;29;20030;-78
2021/12/02 22:20:31;;;;;;;15.02;11.15;;;;;;;;;;4825512;29;20171;-78
2021/12/02 22:22:56;;;;;;;19.30;12.43;;;;;;;;;;4825310;29;20117;-78
2021/12/02 22:25:22;;;;;;;15.85;10.60;;;;;;;;;;4825853;29;20034;-78
2021/12/02 22:27:49;;;;;;;17.90;12.25;;;;;;;;;;4825739;29;20039;-78
2021/12/02 22:30:17;;;;;;;20.38;11.80;;;;;;;;;;4825406;29;20063;-78
2021/12/02 22:32:44;;;;;;;17.65;11.88;;;;;;;;;;4825497;29;20026;-78
2021/12/02 22:35:11;;;;;;;19.13;13.15;;;;;;;;;;4825224;29;20030;-78
2021/12/02 22:37:39;;;;;;;19.63;12.70;;;;;;;;;;4825552;29;20211;-78
2021/12/02 22:40:08;;;;;;;20.42;12.25;;;;;;;;;;4825298;29;20026;-78
2021/12/02 22:42:34;;;;;;;17.70;11.85;;;;;;;;;;4825334;29;20042;-78
2021/12/02 22:45:00;;;;;;;17.20;11.57;;;;;;;;;;4808881;29;20034;-78
2021/12/02 22:47:26;;;;;;;15.25;11.15;;;;;;;;;;4825086;29;20088;-78
2021/12/02 22:49:51;;;;;;;18.80;12.35;;;;;;;;;;4825083;29;20061;-78
2021/12/02 22:52:19;;;;;;;18.40;11.98;;;;;;;;;;4825076;29;20030;-78
2021/12/02 22:54:45;;;;;;;17.17;12.05;;;;;;;;;;4825123;29;20102;-78
2021/12/02 22:57:11;;;;;;;18.27;12.02;;;;;;;;;;4825091;29;20466;-78
2021/12/02 22:59:36;;;;;;;19.13;12.32;;;;;;;;;;4825201;29;20034;-78
2021/12/02 23:02:04;;;;;;;17.52;11.50;;;;;;;;;;4824845;29;20062;-78
2021/12/02 23:04:30;;;;;;;17.35;12.20;;;;;;;;;;4824922;29;20027;-79
2021/12/02 23:06:55;;;;;;;21.08;13.05;;;;;;;;;;4825343;29;20367;-78
2021/12/02 23:09:21;;;;;;;20.10;11.93;;;;;;;;;;4808510;29;20058;-78
2021/12/02 23:11:47;;;;;;;21.00;12.50;;;;;;;;;;4825127;29;20026;-78
2021/12/02 23:14:15;;;;;;;16.85;11.75;;;;;;;;;;4824879;29;20557;-78
2021/12/02 23:16:43;;;;;;;16.67;12.00;;;;;;;;;;4824872;29;20102;-78
2021/12/02 23:19:10;;;;;;;18.83;13.13;;;;;;;;;;4824783;29;20486;-78
2021/12/02 23:21:37;;;;;;;22.00;13.93;;;;;;;;;;4824713;29;20105;-78
2021/12/02 23:24:08;;;;;;;21.35;13.57;;;;;;;;;;4824961;29;20037;-78
2021/12/02 23:26:37;;;;;;;17.75;13.52;;;;;;;;;;4824659;29;20511;-78
2021/12/02 23:29:02;;;;;;;17.45;12.82;;;;;;;;;;4824959;29;20033;-78
2021/12/02 23:31:28;;;;;;;22.85;14.80;;;;;;;;;;4824957;29;20030;-78
2021/12/02 23:33:58;;;;;;;23.00;13.95;;;;;;;;;;4824545;29;20390;-78
2021/12/02 23:36:27;;;;;;;20.63;14.18;;;;;;;;;;4824978;29;20030;-78
2021/12/02 23:38:54;;;;;;;23.15;14.20;;;;;;;;;;4824833;29;20426;-78
2021/12/02 23:41:20;;;;;;;18.42;12.85;;;;;;;;;;4824747;29;20117;-78
2021/12/02 23:43:46;;;;;;;19.20;12.55;;;;;;;;;;4824381;29;20064;-78
2021/12/02 23:46:12;;;;;;;21.80;13.02;;;;;;;;;;4824495;29;20099;-78
2021/12/02 23:48:38;;;;;;;18.73;12.63;;;;;;;;;;4827348;29;20038;-78
2021/12/02 23:51:06;;;;;;;21.70;13.77;;;;;;;;;;4828321;29;20027;-78
2021/12/02 23:53:32;;;;;;;19.73;12.50;;;;;;;;;;4828437;29;20393;-78
2021/12/02 23:55:58;;;;;;;17.00;12.07;;;;;;;;;;4842405;29;20035;-78
2021/12/02 23:58:24;;;;;;;19.17;13.63;;;;;;;;;;4828572;29;20031;-78
